sensor_id;sensor_type;location;lat;lon;timestamp;temperature;humidity
64012;DHT22;50211;52.768;12.124;2022-07-17T00:02:03;12.50;99.90
64012;DHT22;50211;52.768;12.124;2022-07-17T00:04:28;12.50;99.90
64012;DHT22;50211;52.768;12.124;2022-07-17T00:06:54;12.60;99.90
64012;DHT22;50211;52.768;12.124;2022-07-17T00:09:19;12.50;99.90
64012;DHT22;50211;52.768;12.124;2022-07-17T00:11:45;12.50;99.90
64012;DHT22;50211;52.768;12.124;2022-07-17T00:14:10;12.50;99.90
64012;DHT22;50211;52.768;12.124;2022-07-17T00:16:36;12.50;99.90
64012;DHT22;50211;52.768;12.124;2022-07-17T00:19:02;12.60;99.90
64012;DHT22;50211;52.768;12.124;2022-07-17T00:21:27;12.50;99.90
64012;DHT22;50211;52.768;12.124;2022-07-17T00:23:53;12.40;99.90
64012;DHT22;50211;52.768;12.124;2022-07-17T00:26:18;12.40;99.90
64012;DHT22;50211;52.768;12.124;2022-07-17T00:28:44;12.30;99.90
64012;DHT22;50211;52.768;12.124;2022-07-17T00:31:09;12.30;99.90
64012;DHT22;50211;52.768;12.124;2022-07-17T00:33:35;12.30;99.90
64012;DHT22;50211;52.768;12.124;2022-07-17T00:36:00;12.30;99.90
64012;DHT22;50211;52.768;12.124;2022-07-17T00:38:26;12.40;99.90
64012;DHT22;50211;52.768;12.124;2022-07-17T00:40:56;12.40;99.90
64012;DHT22;50211;52.768;12.124;2022-07-17T00:43:22;12.30;99.90
64012;DHT22;50211;52.768;12.124;2022-07-17T00:45:58;12.20;99.90
64012;DHT22;50211;52.768;12.124;2022-07-17T00:48:24;12.10;99.90
64012;DHT22;50211;52.768;12.124;2022-07-17T00:50:50;12.10;99.90
64012;DHT22;50211;52.768;12.124;2022-07-17T00:53:15;12.10;99.90
64012;DHT22;50211;52.768;12.124;2022-07-17T00:55:41;12.00;99.90
64012;DHT22;50211;52.768;12.124;2022-07-17T00:58:08;11.90;99.90
64012;DHT22;50211;52.768;12.124;2022-07-17T01:00:35;12.00;99.90
64012;DHT22;50211;52.768;12.124;2022-07-17T01:03:00;12.00;99.90
64012;DHT22;50211;52.768;12.124;2022-07-17T01:05:26;11.90;99.90
64012;DHT22;50211;52.768;12.124;2022-07-17T01:07:52;11.90;99.90
64012;DHT22;50211;52.768;12.124;2022-07-17T01:10:18;11.90;99.90
64012;DHT22;50211;52.768;12.124;2022-07-17T01:12:47;11.90;99.90
64012;DHT22;50211;52.768;12.124;2022-07-17T01:15:13;11.80;99.90
64012;DHT22;50211;52.768;12.124;2022-07-17T01:17:41;11.80;99.90
64012;DHT22;50211;52.768;12.124;2022-07-17T01:20:08;11.70;99.90
64012;DHT22;50211;52.768;12.124;2022-07-17T01:22:42;11.70;99.90
64012;DHT22;50211;52.768;12.124;2022-07-17T01:25:08;11.60;99.90
64012;DHT22;50211;52.768;12.124;2022-07-17T01:27:34;11.60;99.90
64012;DHT22;50211;52.768;12.124;2022-07-17T01:29:59;11.50;99.90
64012;DHT22;50211;52.768;12.124;2022-07-17T01:32:35;11.60;99.90
64012;DHT22;50211;52.768;12.124;2022-07-17T01:35:02;11.60;99.90
64012;DHT22;50211;52.768;12.124;2022-07-17T01:37:28;11.60;99.90
64012;DHT22;50211;52.768;12.124;2022-07-17T01:39:54;11.60;99.90
64012;DHT22;50211;52.768;12.124;2022-07-17T01:42:21;11.60;99.90
64012;DHT22;50211;52.768;12.124;2022-07-17T01:44:47;11.60;99.90
64012;DHT22;50211;52.768;12.124;2022-07-17T01:47:13;11.60;99.90
64012;DHT22;50211;52.768;12.124;2022-07-17T01:49:43;11.60;99.90
64012;DHT22;50211;52.768;12.124;2022-07-17T01:52:09;11.70;99.90
64012;DHT22;50211;52.768;12.124;2022-07-17T01:54:34;11.60;99.90
64012;DHT22;50211;52.768;12.124;2022-07-17T01:57:00;11.60;99.90
64012;DHT22;50211;52.768;12.124;2022-07-17T01:59:25;11.60;99.90
64012;DHT22;50211;52.768;12.124;2022-07-17T02:01:51;11.50;99.90
64012;DHT22;50211;52.768;12.124;2022-07-17T02:04:16;11.40;99.90
64012;DHT22;50211;52.768;12.124;2022-07-17T02:06:42;11.40;99.90
64012;DHT22;50211;52.768;12.124;2022-07-17T02:09:07;11.50;99.90
64012;DHT22;50211;52.768;12.124;2022-07-17T02:11:33;11.40;99.90
64012;DHT22;50211;52.768;12.124;2022-07-17T02:13:58;11.40;99.90
64012;DHT22;50211;52.768;12.124;2022-07-17T02:16:24;11.30;99.90
64012;DHT22;50211;52.768;12.124;2022-07-17T02:18:49;11.30;99.90
64012;DHT22;50211;52.768;12.124;2022-07-17T02:21:15;11.10;99.90
64012;DHT22;50211;52.768;12.124;2022-07-17T02:23:40;11.10;99.90
64012;DHT22;50211;52.768;12.124;2022-07-17T02:26:06;11.10;99.90
64012;DHT22;50211;52.768;12.124;2022-07-17T02:28:31;11.10;99.90
64012;DHT22;50211;52.768;12.124;2022-07-17T02:30:57;11.10;99.90
64012;DHT22;50211;52.768;12.124;2022-07-17T02:33:22;11.10;99.90
64012;DHT22;50211;52.768;12.124;2022-07-17T02:35:48;11.00;99.90
64012;DHT22;50211;52.768;12.124;2022-07-17T02:38:13;10.90;99.90
64012;DHT22;50211;52.768;12.124;2022-07-17T02:40:39;10.90;99.90
64012;DHT22;50211;52.768;12.124;2022-07-17T02:43:04;11.00;99.90
64012;DHT22;50211;52.768;12.124;2022-07-17T02:45:30;11.00;99.90
64012;DHT22;50211;52.768;12.124;2022-07-17T02:47:56;11.00;99.90
64012;DHT22;50211;52.768;12.124;2022-07-17T02:50:21;11.10;99.90
64012;DHT22;50211;52.768;12.124;2022-07-17T02:52:47;11.00;99.90
64012;DHT22;50211;52.768;12.124;2022-07-17T02:55:15;11.10;99.90
64012;DHT22;50211;52.768;12.124;2022-07-17T02:57:41;11.10;99.90
64012;DHT22;50211;52.768;12.124;2022-07-17T03:00:10;11.00;99.90
64012;DHT22;50211;52.768;12.124;2022-07-17T03:02:35;11.10;99.90
64012;DHT22;50211;52.768;12.124;2022-07-17T03:05:01;11.00;99.90
64012;DHT22;50211;52.768;12.124;2022-07-17T03:07:27;11.00;99.90
64012;DHT22;50211;52.768;12.124;2022-07-17T03:09:52;11.00;99.90
64012;DHT22;50211;52.768;12.124;2022-07-17T03:12:18;10.90;99.90
64012;DHT22;50211;52.768;12.124;2022-07-17T03:14:43;10.80;99.90
64012;DHT22;50211;52.768;12.124;2022-07-17T03:17:09;10.70;99.90
64012;DHT22;50211;52.768;12.124;2022-07-17T03:19:34;10.60;99.90
64012;DHT22;50211;52.768;12.124;2022-07-17T03:22:00;10.60;99.90
64012;DHT22;50211;52.768;12.124;2022-07-17T03:24:26;10.60;99.90
64012;DHT22;50211;52.768;12.124;2022-07-17T03:26:51;10.60;99.90
64012;DHT22;50211;52.768;12.124;2022-07-17T03:29:17;10.50;99.90
64012;DHT22;50211;52.768;12.124;2022-07-17T03:31:46;10.60;99.90
64012;DHT22;50211;52.768;12.124;2022-07-17T03:34:12;10.60;99.90
64012;DHT22;50211;52.768;12.124;2022-07-17T03:36:38;10.60;99.90
64012;DHT22;50211;52.768;12.124;2022-07-17T03:39:03;10.70;99.90
64012;DHT22;50211;52.768;12.124;2022-07-17T03:41:29;10.80;99.90
64012;DHT22;50211;52.768;12.124;2022-07-17T03:43:54;10.90;99.90
64012;DHT22;50211;52.768;12.124;2022-07-17T03:46:20;11.00;99.90
64012;DHT22;50211;52.768;12.124;2022-07-17T03:48:46;11.00;99.90
64012;DHT22;50211;52.768;12.124;2022-07-17T03:51:11;11.10;99.90
64012;DHT22;50211;52.768;12.124;2022-07-17T03:53:36;11.20;99.90
64012;DHT22;50211;52.768;12.124;2022-07-17T03:56:02;11.20;99.90
64012;DHT22;50211;52.768;12.124;2022-07-17T03:58:28;11.20;99.90
64012;DHT22;50211;52.768;12.124;2022-07-17T04:00:53;11.30;99.90
64012;DHT22;50211;52.768;12.124;2022-07-17T04:03:20;11.30;99.90
64012;DHT22;50211;52.768;12.124;2022-07-17T04:05:45;11.40;99.90
64012;DHT22;50211;52.768;12.124;2022-07-17T04:08:11;11.30;99.90
64012;DHT22;50211;52.768;12.124;2022-07-17T04:10:38;11.30;99.90
64012;DHT22;50211;52.768;12.124;2022-07-17T04:13:03;11.40;99.90
64012;DHT22;50211;52.768;12.124;2022-07-17T04:15:29;11.40;99.90
64012;DHT22;50211;52.768;12.124;2022-07-17T04:18:13;11.40;99.90
64012;DHT22;50211;52.768;12.124;2022-07-17T04:20:39;11.40;99.90
64012;DHT22;50211;52.768;12.124;2022-07-17T04:23:04;11.40;99.90
64012;DHT22;50211;52.768;12.124;2022-07-17T04:25:30;11.40;99.90
64012;DHT22;50211;52.768;12.124;2022-07-17T04:27:56;11.40;99.90
64012;DHT22;50211;52.768;12.124;2022-07-17T04:30:22;11.40;99.90
64012;DHT22;50211;52.768;12.124;2022-07-17T04:32:47;11.40;99.90
64012;DHT22;50211;52.768;12.124;2022-07-17T04:35:13;11.40;99.90
64012;DHT22;50211;52.768;12.124;2022-07-17T04:37:38;11.40;99.90
64012;DHT22;50211;52.768;12.124;2022-07-17T04:40:04;11.40;99.90
64012;DHT22;50211;52.768;12.124;2022-07-17T04:42:30;11.40;99.90
64012;DHT22;50211;52.768;12.124;2022-07-17T04:44:55;11.50;99.90
64012;DHT22;50211;52.768;12.124;2022-07-17T04:47:21;11.50;99.90
64012;DHT22;50211;52.768;12.124;2022-07-17T04:49:46;11.60;99.90
64012;DHT22;50211;52.768;12.124;2022-07-17T04:52:12;11.60;99.90
64012;DHT22;50211;52.768;12.124;2022-07-17T04:54:37;11.70;99.90
64012;DHT22;50211;52.768;12.124;2022-07-17T04:57:03;11.80;99.90
64012;DHT22;50211;52.768;12.124;2022-07-17T04:59:28;12.00;99.90
64012;DHT22;50211;52.768;12.124;2022-07-17T05:01:54;12.00;99.90
64012;DHT22;50211;52.768;12.124;2022-07-17T05:04:19;12.10;99.90
64012;DHT22;50211;52.768;12.124;2022-07-17T05:06:46;12.10;99.90
64012;DHT22;50211;52.768;12.124;2022-07-17T05:09:11;12.20;99.90
64012;DHT22;50211;52.768;12.124;2022-07-17T05:11:37;12.20;99.90
64012;DHT22;50211;52.768;12.124;2022-07-17T05:14:03;12.20;99.90
64012;DHT22;50211;52.768;12.124;2022-07-17T05:16:28;12.30;99.90
64012;DHT22;50211;52.768;12.124;2022-07-17T05:18:54;12.30;99.90
64012;DHT22;50211;52.768;12.124;2022-07-17T05:21:19;12.40;99.90
64012;DHT22;50211;52.768;12.124;2022-07-17T05:23:45;12.50;99.90
64012;DHT22;50211;52.768;12.124;2022-07-17T05:26:10;12.60;99.90
64012;DHT22;50211;52.768;12.124;2022-07-17T05:28:36;12.60;99.90
64012;DHT22;50211;52.768;12.124;2022-07-17T05:31:02;12.60;99.90
64012;DHT22;50211;52.768;12.124;2022-07-17T05:33:27;12.70;99.90
64012;DHT22;50211;52.768;12.124;2022-07-17T05:35:53;12.70;99.90
64012;DHT22;50211;52.768;12.124;2022-07-17T05:38:18;12.80;99.90
64012;DHT22;50211;52.768;12.124;2022-07-17T05:40:44;12.90;99.90
64012;DHT22;50211;52.768;12.124;2022-07-17T05:43:09;13.00;99.90
64012;DHT22;50211;52.768;12.124;2022-07-17T05:45:35;13.10;99.90
64012;DHT22;50211;52.768;12.124;2022-07-17T05:48:00;13.20;99.90
64012;DHT22;50211;52.768;12.124;2022-07-17T05:50:26;13.20;99.90
64012;DHT22;50211;52.768;12.124;2022-07-17T05:52:52;13.30;99.90
64012;DHT22;50211;52.768;12.124;2022-07-17T05:55:17;13.40;99.90
64012;DHT22;50211;52.768;12.124;2022-07-17T05:57:43;13.40;99.90
64012;DHT22;50211;52.768;12.124;2022-07-17T06:00:09;13.40;99.90
64012;DHT22;50211;52.768;12.124;2022-07-17T06:02:35;13.40;99.90
64012;DHT22;50211;52.768;12.124;2022-07-17T06:05:01;13.40;99.90
64012;DHT22;50211;52.768;12.124;2022-07-17T06:07:26;13.50;99.90
64012;DHT22;50211;52.768;12.124;2022-07-17T06:09:52;13.50;99.90
64012;DHT22;50211;52.768;12.124;2022-07-17T06:12:17;13.50;99.90
64012;DHT22;50211;52.768;12.124;2022-07-17T06:14:43;13.50;99.90
64012;DHT22;50211;52.768;12.124;2022-07-17T06:17:08;13.70;99.90
64012;DHT22;50211;52.768;12.124;2022-07-17T06:19:34;13.80;99.90
64012;DHT22;50211;52.768;12.124;2022-07-17T06:21:59;13.80;99.90
64012;DHT22;50211;52.768;12.124;2022-07-17T06:24:25;13.80;99.90
64012;DHT22;50211;52.768;12.124;2022-07-17T06:26:51;14.10;99.90
64012;DHT22;50211;52.768;12.124;2022-07-17T06:29:17;14.40;99.90
64012;DHT22;50211;52.768;12.124;2022-07-17T06:31:42;14.60;99.90
64012;DHT22;50211;52.768;12.124;2022-07-17T06:34:07;14.80;99.90
64012;DHT22;50211;52.768;12.124;2022-07-17T06:36:33;14.80;99.90
64012;DHT22;50211;52.768;12.124;2022-07-17T06:38:58;14.90;99.90
64012;DHT22;50211;52.768;12.124;2022-07-17T06:41:24;14.90;99.90
64012;DHT22;50211;52.768;12.124;2022-07-17T06:43:49;14.90;99.90
64012;DHT22;50211;52.768;12.124;2022-07-17T06:46:15;15.00;99.90
64012;DHT22;50211;52.768;12.124;2022-07-17T06:48:40;15.10;99.90
64012;DHT22;50211;52.768;12.124;2022-07-17T06:51:06;15.20;99.90
64012;DHT22;50211;52.768;12.124;2022-07-17T06:53:32;15.40;99.90
64012;DHT22;50211;52.768;12.124;2022-07-17T06:55:57;15.40;99.90
64012;DHT22;50211;52.768;12.124;2022-07-17T06:58:23;15.20;99.90
64012;DHT22;50211;52.768;12.124;2022-07-17T07:00:48;15.20;99.90
64012;DHT22;50211;52.768;12.124;2022-07-17T07:03:14;15.20;99.90
64012;DHT22;50211;52.768;12.124;2022-07-17T07:05:39;15.20;99.90
64012;DHT22;50211;52.768;12.124;2022-07-17T07:08:05;15.20;99.90
64012;DHT22;50211;52.768;12.124;2022-07-17T07:10:30;15.30;99.90
64012;DHT22;50211;52.768;12.124;2022-07-17T07:12:56;15.50;99.90
64012;DHT22;50211;52.768;12.124;2022-07-17T07:15:22;15.70;99.90
64012;DHT22;50211;52.768;12.124;2022-07-17T07:17:48;15.90;99.90
64012;DHT22;50211;52.768;12.124;2022-07-17T07:20:14;15.90;99.90
64012;DHT22;50211;52.768;12.124;2022-07-17T07:22:39;16.00;99.90
64012;DHT22;50211;52.768;12.124;2022-07-17T07:25:05;16.00;99.90
64012;DHT22;50211;52.768;12.124;2022-07-17T07:27:31;16.10;99.90
64012;DHT22;50211;52.768;12.124;2022-07-17T07:29:57;16.00;99.90
64012;DHT22;50211;52.768;12.124;2022-07-17T07:32:22;16.00;99.90
64012;DHT22;50211;52.768;12.124;2022-07-17T07:34:48;16.20;99.90
64012;DHT22;50211;52.768;12.124;2022-07-17T07:37:13;16.20;99.90
64012;DHT22;50211;52.768;12.124;2022-07-17T07:39:39;16.30;99.90
64012;DHT22;50211;52.768;12.124;2022-07-17T07:42:04;16.30;99.90
64012;DHT22;50211;52.768;12.124;2022-07-17T07:44:30;16.30;99.90
64012;DHT22;50211;52.768;12.124;2022-07-17T07:46:56;16.30;99.90
64012;DHT22;50211;52.768;12.124;2022-07-17T07:49:21;16.30;99.90
64012;DHT22;50211;52.768;12.124;2022-07-17T07:51:47;16.20;99.90
64012;DHT22;50211;52.768;12.124;2022-07-17T07:54:12;16.20;99.90
64012;DHT22;50211;52.768;12.124;2022-07-17T07:56:38;16.10;99.90
64012;DHT22;50211;52.768;12.124;2022-07-17T07:59:03;16.30;99.90
64012;DHT22;50211;52.768;12.124;2022-07-17T08:01:29;16.30;99.90
64012;DHT22;50211;52.768;12.124;2022-07-17T08:03:55;16.30;99.90
64012;DHT22;50211;52.768;12.124;2022-07-17T08:06:21;16.40;99.90
64012;DHT22;50211;52.768;12.124;2022-07-17T08:08:46;16.90;99.90
64012;DHT22;50211;52.768;12.124;2022-07-17T08:11:12;17.30;99.90
64012;DHT22;50211;52.768;12.124;2022-07-17T08:13:37;17.30;99.90
64012;DHT22;50211;52.768;12.124;2022-07-17T08:16:03;17.00;99.90
64012;DHT22;50211;52.768;12.124;2022-07-17T08:18:29;16.70;99.90
64012;DHT22;50211;52.768;12.124;2022-07-17T08:20:55;16.80;99.90
64012;DHT22;50211;52.768;12.124;2022-07-17T08:23:21;17.00;99.90
64012;DHT22;50211;52.768;12.124;2022-07-17T08:25:46;17.30;99.90
64012;DHT22;50211;52.768;12.124;2022-07-17T08:28:13;17.30;99.90
64012;DHT22;50211;52.768;12.124;2022-07-17T08:30:39;17.10;99.90
64012;DHT22;50211;52.768;12.124;2022-07-17T08:33:06;17.00;99.90
64012;DHT22;50211;52.768;12.124;2022-07-17T08:35:32;17.20;99.90
64012;DHT22;50211;52.768;12.124;2022-07-17T08:37:57;17.60;99.90
64012;DHT22;50211;52.768;12.124;2022-07-17T08:40:28;18.20;99.90
64012;DHT22;50211;52.768;12.124;2022-07-17T08:42:55;18.30;99.90
64012;DHT22;50211;52.768;12.124;2022-07-17T08:45:21;17.90;99.90
64012;DHT22;50211;52.768;12.124;2022-07-17T08:47:47;17.60;99.90
64012;DHT22;50211;52.768;12.124;2022-07-17T08:50:15;17.60;99.90
64012;DHT22;50211;52.768;12.124;2022-07-17T08:52:42;17.40;99.90
64012;DHT22;50211;52.768;12.124;2022-07-17T08:55:10;17.50;99.90
64012;DHT22;50211;52.768;12.124;2022-07-17T08:57:37;17.80;99.90
64012;DHT22;50211;52.768;12.124;2022-07-17T09:00:04;18.40;99.90
64012;DHT22;50211;52.768;12.124;2022-07-17T09:02:30;18.70;99.90
64012;DHT22;50211;52.768;12.124;2022-07-17T09:04:56;18.60;99.90
64012;DHT22;50211;52.768;12.124;2022-07-17T09:07:21;18.80;99.90
64012;DHT22;50211;52.768;12.124;2022-07-17T09:09:53;19.40;99.90
64012;DHT22;50211;52.768;12.124;2022-07-17T09:12:29;20.00;99.90
64012;DHT22;50211;52.768;12.124;2022-07-17T09:14:55;20.20;99.90
64012;DHT22;50211;52.768;12.124;2022-07-17T09:17:21;19.40;99.90
64012;DHT22;50211;52.768;12.124;2022-07-17T09:19:48;18.80;99.90
64012;DHT22;50211;52.768;12.124;2022-07-17T09:22:20;18.80;99.90
64012;DHT22;50211;52.768;12.124;2022-07-17T09:24:54;19.20;99.90
64012;DHT22;50211;52.768;12.124;2022-07-17T09:30:01;19.30;99.90
64012;DHT22;50211;52.768;12.124;2022-07-17T09:32:30;19.60;99.90
64012;DHT22;50211;52.768;12.124;2022-07-17T09:34:58;19.90;99.90
64012;DHT22;50211;52.768;12.124;2022-07-17T09:37:26;20.10;99.90
64012;DHT22;50211;52.768;12.124;2022-07-17T09:39:52;20.30;99.90
64012;DHT22;50211;52.768;12.124;2022-07-17T09:45:07;20.70;99.90
64012;DHT22;50211;52.768;12.124;2022-07-17T09:47:35;20.70;99.90
64012;DHT22;50211;52.768;12.124;2022-07-17T09:50:03;20.90;99.90
64012;DHT22;50211;52.768;12.124;2022-07-17T09:52:32;20.90;99.90
64012;DHT22;50211;52.768;12.124;2022-07-17T09:54:59;20.70;99.90
64012;DHT22;50211;52.768;12.124;2022-07-17T09:57:30;20.50;99.90
64012;DHT22;50211;52.768;12.124;2022-07-17T09:59:59;20.70;99.90
64012;DHT22;50211;52.768;12.124;2022-07-17T10:02:25;20.60;99.90
64012;DHT22;50211;52.768;12.124;2022-07-17T10:04:52;21.10;99.90
64012;DHT22;50211;52.768;12.124;2022-07-17T10:07:18;21.40;99.90
64012;DHT22;50211;52.768;12.124;2022-07-17T10:09:45;21.20;99.90
64012;DHT22;50211;52.768;12.124;2022-07-17T10:12:10;21.40;99.90
64012;DHT22;50211;52.768;12.124;2022-07-17T10:14:36;21.40;99.90
64012;DHT22;50211;52.768;12.124;2022-07-17T10:17:11;21.70;99.90
64012;DHT22;50211;52.768;12.124;2022-07-17T10:19:53;20.90;99.90
64012;DHT22;50211;52.768;12.124;2022-07-17T10:22:18;21.20;99.90
64012;DHT22;50211;52.768;12.124;2022-07-17T10:24:49;21.20;99.90
64012;DHT22;50211;52.768;12.124;2022-07-17T10:27:29;21.00;99.90
64012;DHT22;50211;52.768;12.124;2022-07-17T10:30:04;21.00;99.90
64012;DHT22;50211;52.768;12.124;2022-07-17T10:32:30;21.10;99.90
64012;DHT22;50211;52.768;12.124;2022-07-17T10:35:03;21.30;99.90
64012;DHT22;50211;52.768;12.124;2022-07-17T10:37:37;21.00;99.90
64012;DHT22;50211;52.768;12.124;2022-07-17T10:45:42;21.80;99.90
64012;DHT22;50211;52.768;12.124;2022-07-17T10:48:10;21.70;99.90
64012;DHT22;50211;52.768;12.124;2022-07-17T10:50:49;21.40;99.90
64012;DHT22;50211;52.768;12.124;2022-07-17T10:53:29;21.20;99.90
64012;DHT22;50211;52.768;12.124;2022-07-17T10:56:00;21.00;99.90
64012;DHT22;50211;52.768;12.124;2022-07-17T10:58:33;21.50;99.90
64012;DHT22;50211;52.768;12.124;2022-07-17T11:01:14;22.00;99.90
64012;DHT22;50211;52.768;12.124;2022-07-17T11:03:49;21.90;99.90
64012;DHT22;50211;52.768;12.124;2022-07-17T11:06:35;21.90;99.90
64012;DHT22;50211;52.768;12.124;2022-07-17T11:09:04;21.60;99.90
64012;DHT22;50211;52.768;12.124;2022-07-17T11:11:41;21.80;99.90
64012;DHT22;50211;52.768;12.124;2022-07-17T11:14:21;22.10;99.90
64012;DHT22;50211;52.768;12.124;2022-07-17T11:16:56;22.30;99.90
64012;DHT22;50211;52.768;12.124;2022-07-17T11:19:29;22.20;99.90
64012;DHT22;50211;52.768;12.124;2022-07-17T11:21:58;21.50;99.90
64012;DHT22;50211;52.768;12.124;2022-07-17T11:24:24;21.60;99.90
64012;DHT22;50211;52.768;12.124;2022-07-17T11:26:51;21.50;99.90
64012;DHT22;50211;52.768;12.124;2022-07-17T11:29:18;21.80;99.90
64012;DHT22;50211;52.768;12.124;2022-07-17T11:31:43;22.40;99.90
64012;DHT22;50211;52.768;12.124;2022-07-17T11:34:10;22.80;99.90
64012;DHT22;50211;52.768;12.124;2022-07-17T11:36:42;22.40;99.90
64012;DHT22;50211;52.768;12.124;2022-07-17T11:39:14;22.50;99.90
64012;DHT22;50211;52.768;12.124;2022-07-17T11:41:46;22.50;99.90
64012;DHT22;50211;52.768;12.124;2022-07-17T11:44:18;22.30;99.90
64012;DHT22;50211;52.768;12.124;2022-07-17T11:46:45;22.40;99.90
64012;DHT22;50211;52.768;12.124;2022-07-17T11:49:44;22.50;99.90
64012;DHT22;50211;52.768;12.124;2022-07-17T11:52:13;22.70;99.90
64012;DHT22;50211;52.768;12.124;2022-07-17T11:54:53;22.90;99.90
64012;DHT22;50211;52.768;12.124;2022-07-17T11:57:23;22.80;99.90
64012;DHT22;50211;52.768;12.124;2022-07-17T11:59:50;23.00;99.90
64012;DHT22;50211;52.768;12.124;2022-07-17T12:02:20;22.90;99.90
64012;DHT22;50211;52.768;12.124;2022-07-17T12:04:58;22.80;99.90
64012;DHT22;50211;52.768;12.124;2022-07-17T12:07:38;23.10;99.90
64012;DHT22;50211;52.768;12.124;2022-07-17T12:10:25;23.50;99.90
64012;DHT22;50211;52.768;12.124;2022-07-17T12:12:59;23.00;99.90
64012;DHT22;50211;52.768;12.124;2022-07-17T12:18:29;24.00;99.90
64012;DHT22;50211;52.768;12.124;2022-07-17T12:20:57;24.20;99.90
64012;DHT22;50211;52.768;12.124;2022-07-17T12:23:38;24.20;99.50
64012;DHT22;50211;52.768;12.124;2022-07-17T12:26:07;23.80;99.60
64012;DHT22;50211;52.768;12.124;2022-07-17T12:28:34;23.40;99.90
64012;DHT22;50211;52.768;12.124;2022-07-17T12:31:01;23.60;99.90
64012;DHT22;50211;52.768;12.124;2022-07-17T12:33:26;23.90;99.90
64012;DHT22;50211;52.768;12.124;2022-07-17T12:35:52;24.50;99.90
64012;DHT22;50211;52.768;12.124;2022-07-17T12:38:17;25.20;99.60
64012;DHT22;50211;52.768;12.124;2022-07-17T12:40:43;25.10;98.90
64012;DHT22;50211;52.768;12.124;2022-07-17T12:43:08;25.00;98.90
64012;DHT22;50211;52.768;12.124;2022-07-17T12:45:34;25.00;99.80
64012;DHT22;50211;52.768;12.124;2022-07-17T12:48:00;25.00;98.30
64012;DHT22;50211;52.768;12.124;2022-07-17T12:50:25;25.00;98.20
64012;DHT22;50211;52.768;12.124;2022-07-17T12:52:51;24.40;99.10
64012;DHT22;50211;52.768;12.124;2022-07-17T12:55:17;24.80;99.40
64012;DHT22;50211;52.768;12.124;2022-07-17T12:57:43;23.90;98.40
64012;DHT22;50211;52.768;12.124;2022-07-17T13:00:09;24.50;99.90
64012;DHT22;50211;52.768;12.124;2022-07-17T13:02:35;25.20;98.40
64012;DHT22;50211;52.768;12.124;2022-07-17T13:05:00;25.30;98.00
64012;DHT22;50211;52.768;12.124;2022-07-17T13:07:26;25.30;97.10
64012;DHT22;50211;52.768;12.124;2022-07-17T13:09:52;25.50;97.50
64012;DHT22;50211;52.768;12.124;2022-07-17T13:12:17;25.10;96.60
64012;DHT22;50211;52.768;12.124;2022-07-17T13:14:43;25.40;98.00
64012;DHT22;50211;52.768;12.124;2022-07-17T13:17:08;25.70;99.30
64012;DHT22;50211;52.768;12.124;2022-07-17T13:19:34;25.80;96.00
64012;DHT22;50211;52.768;12.124;2022-07-17T13:22:01;24.90;96.10
64012;DHT22;50211;52.768;12.124;2022-07-17T13:24:29;24.90;96.80
64012;DHT22;50211;52.768;12.124;2022-07-17T13:26:54;24.80;96.60
64012;DHT22;50211;52.768;12.124;2022-07-17T13:29:20;24.50;96.40
64012;DHT22;50211;52.768;12.124;2022-07-17T13:31:46;24.60;99.20
64012;DHT22;50211;52.768;12.124;2022-07-17T13:34:11;25.40;97.80
64012;DHT22;50211;52.768;12.124;2022-07-17T13:36:37;26.00;96.40
64012;DHT22;50211;52.768;12.124;2022-07-17T13:39:03;25.80;95.50
64012;DHT22;50211;52.768;12.124;2022-07-17T13:41:28;25.90;97.10
64012;DHT22;50211;52.768;12.124;2022-07-17T13:43:54;26.50;96.00
64012;DHT22;50211;52.768;12.124;2022-07-17T13:46:19;25.90;95.00
64012;DHT22;50211;52.768;12.124;2022-07-17T13:48:45;26.30;96.80
64012;DHT22;50211;52.768;12.124;2022-07-17T13:51:12;26.50;94.60
64012;DHT22;50211;52.768;12.124;2022-07-17T13:53:38;26.20;96.50
64012;DHT22;50211;52.768;12.124;2022-07-17T13:56:03;26.90;95.20
64012;DHT22;50211;52.768;12.124;2022-07-17T13:58:29;26.90;94.00
64012;DHT22;50211;52.768;12.124;2022-07-17T14:00:56;27.00;93.60
64012;DHT22;50211;52.768;12.124;2022-07-17T14:03:21;26.10;92.70
64012;DHT22;50211;52.768;12.124;2022-07-17T14:05:48;26.00;95.40
64012;DHT22;50211;52.768;12.124;2022-07-17T14:08:13;26.40;95.60
64012;DHT22;50211;52.768;12.124;2022-07-17T14:10:39;26.90;94.10
64012;DHT22;50211;52.768;12.124;2022-07-17T14:13:04;27.40;93.60
64012;DHT22;50211;52.768;12.124;2022-07-17T14:15:30;27.50;93.20
64012;DHT22;50211;52.768;12.124;2022-07-17T14:17:56;27.30;91.50
64012;DHT22;50211;52.768;12.124;2022-07-17T14:20:21;26.20;91.90
64012;DHT22;50211;52.768;12.124;2022-07-17T14:22:47;26.80;93.90
64012;DHT22;50211;52.768;12.124;2022-07-17T14:25:13;27.20;92.90
64012;DHT22;50211;52.768;12.124;2022-07-17T14:27:38;26.70;91.60
64012;DHT22;50211;52.768;12.124;2022-07-17T14:30:04;27.00;92.80
64012;DHT22;50211;52.768;12.124;2022-07-17T14:32:30;27.20;92.70
64012;DHT22;50211;52.768;12.124;2022-07-17T14:34:55;27.40;91.90
64012;DHT22;50211;52.768;12.124;2022-07-17T14:37:21;27.60;92.90
64012;DHT22;50211;52.768;12.124;2022-07-17T14:39:46;27.50;90.50
64012;DHT22;50211;52.768;12.124;2022-07-17T14:42:12;27.30;92.00
64012;DHT22;50211;52.768;12.124;2022-07-17T14:44:38;27.50;91.20
64012;DHT22;50211;52.768;12.124;2022-07-17T14:47:04;27.80;92.00
64012;DHT22;50211;52.768;12.124;2022-07-17T14:49:30;27.50;90.70
64012;DHT22;50211;52.768;12.124;2022-07-17T14:51:55;27.10;90.70
64012;DHT22;50211;52.768;12.124;2022-07-17T14:54:21;27.10;90.80
64012;DHT22;50211;52.768;12.124;2022-07-17T14:56:46;27.10;91.40
64012;DHT22;50211;52.768;12.124;2022-07-17T14:59:12;26.70;91.50
64012;DHT22;50211;52.768;12.124;2022-07-17T15:01:37;27.10;90.70
64012;DHT22;50211;52.768;12.124;2022-07-17T15:04:03;26.90;91.00
64012;DHT22;50211;52.768;12.124;2022-07-17T15:06:29;27.10;90.10
64012;DHT22;50211;52.768;12.124;2022-07-17T15:08:54;26.70;91.50
64012;DHT22;50211;52.768;12.124;2022-07-17T15:11:20;26.50;90.80
64012;DHT22;50211;52.768;12.124;2022-07-17T15:13:45;26.00;90.30
64012;DHT22;50211;52.768;12.124;2022-07-17T15:16:11;25.60;91.30
64012;DHT22;50211;52.768;12.124;2022-07-17T15:18:36;25.40;91.50
64012;DHT22;50211;52.768;12.124;2022-07-17T15:21:02;25.50;91.10
64012;DHT22;50211;52.768;12.124;2022-07-17T15:23:28;25.80;91.60
64012;DHT22;50211;52.768;12.124;2022-07-17T15:25:53;26.00;91.00
64012;DHT22;50211;52.768;12.124;2022-07-17T15:28:18;26.20;91.90